Time,TemperatureF,DewpointF,PressureIn,WindDirection,WindDirectionDegrees,WindSpeedMPH,WindSpeedGustMPH,Humidity,HourlyPrecipIn,Conditions,Clouds,dailyrainin,SolarRadiationWatts/m^2,SoftwareType,DateUTC
2013-04-30 00:02:00,63.3,61.3,29.88,East,87,0.0,0.0,93,0.00,,,0.00,0.0,meteohub,2013-04-30 05:02:00,
2013-04-30 00:07:00,63.3,61.3,29.88,East,87,0.0,0.0,93,0.00,,,0.00,0.0,meteohub,2013-04-30 05:07:00,
2013-04-30 00:12:00,63.1,61.2,29.87,East,88,0.0,0.0,93,0.00,,,0.00,0.0,meteohub,2013-04-30 05:12:00,
2013-04-30 00:17:00,63.1,61.2,29.88,East,88,0.0,0.0,93,0.00,,,0.00,0.0,meteohub,2013-04-30 05:17:00,
2013-04-30 00:22:00,63.1,61.2,29.88,East,88,0.0,0.0,93,0.00,,,0.00,0.0,meteohub,2013-04-30 05:22:00,
2013-04-30 00:27:00,63.1,61.2,29.88,East,87,0.0,0.0,93,0.00,,,0.00,0.0,meteohub,2013-04-30 05:27:00,
2013-04-30 00:32:00,63.0,61.0,29.88,East,88,0.0,0.0,93,0.00,,,0.00,0.0,meteohub,2013-04-30 05:32:00,
2013-04-30 00:37:00,62.8,61.0,29.88,East,87,0.0,0.0,94,0.00,,,0.00,0.0,meteohub,2013-04-30 05:37:00,
2013-04-30 00:42:00,62.8,61.0,29.88,East,87,0.0,0.0,94,0.00,,,0.00,0.0,meteohub,2013-04-30 05:42:00,
2013-04-30 00:47:00,62.8,61.0,29.88,East,88,0.0,0.0,94,0.00,,,0.00,0.0,meteohub,2013-04-30 05:47:00,
2013-04-30 00:52:00,62.6,60.8,29.88,East,88,0.0,0.0,94,0.00,,,0.00,0.0,meteohub,2013-04-30 05:52:00,
2013-04-30 00:57:00,62.4,60.6,29.87,East,87,0.0,0.0,94,0.00,,,0.00,0.0,meteohub,2013-04-30 05:57:00,
2013-04-30 01:02:00,62.4,60.6,29.88,East,87,0.0,0.0,94,0.00,,,0.00,0.0,meteohub,2013-04-30 06:02:00,
2013-04-30 01:07:00,62.2,60.4,29.87,East,87,0.0,0.0,94,0.00,,,0.00,0.0,meteohub,2013-04-30 06:07:00,
2013-04-30 01:12:00,62.4,60.6,29.88,East,87,0.0,0.0,94,0.00,,,0.00,0.0,meteohub,2013-04-30 06:12:00,
2013-04-30 01:17:00,62.6,60.8,29.87,East,88,0.0,0.0,94,0.00,,,0.00,0.0,meteohub,2013-04-30 06:17:00,
2013-04-30 01:22:00,62.6,60.8,29.87,East,88,0.0,0.0,94,0.00,,,0.00,0.0,meteohub,2013-04-30 06:22:00,
2013-04-30 01:27:00,62.4,60.6,29.87,East,88,0.0,0.0,94,0.00,,,0.00,0.0,meteohub,2013-04-30 06:27:00,
2013-04-30 01:32:00,62.2,60.4,29.87,East,88,0.0,0.0,94,0.00,,,0.00,0.0,meteohub,2013-04-30 06:32:00,
2013-04-30 01:37:00,62.2,60.8,29.87,East,88,0.0,0.0,95,0.00,,,0.00,0.0,meteohub,2013-04-30 06:37:00,
2013-04-30 01:42:00,62.4,61.0,29.86,East,88,0.0,0.0,95,0.00,,,0.00,0.0,meteohub,2013-04-30 06:42:00,
2013-04-30 01:47:00,62.4,61.0,29.86,East,87,0.0,0.0,95,0.00,,,0.00,0.0,meteohub,2013-04-30 06:47:00,
2013-04-30 01:52:00,62.6,61.2,29.87,East,88,0.0,0.0,95,0.00,,,0.00,0.0,meteohub,2013-04-30 06:52:00,
2013-04-30 01:57:00,62.8,61.3,29.87,East,88,0.0,0.0,95,0.00,,,0.00,0.0,meteohub,2013-04-30 06:57:00,
2013-04-30 02:02:00,62.6,60.8,29.86,East,88,0.0,0.0,94,0.00,,,0.00,0.0,meteohub,2013-04-30 07:02:00,
2013-04-30 02:07:00,62.6,60.8,29.86,East,88,0.0,0.0,94,0.00,,,0.00,0.0,meteohub,2013-04-30 07:07:00,
2013-04-30 02:12:00,62.4,60.6,29.87,East,87,0.0,0.0,94,0.00,,,0.00,0.0,meteohub,2013-04-30 07:12:00,
2013-04-30 02:17:00,62.2,60.8,29.87,East,88,0.0,0.0,95,0.00,,,0.00,0.0,meteohub,2013-04-30 07:17:00,
2013-04-30 02:22:00,62.2,60.8,29.87,East,88,0.0,0.0,95,0.00,,,0.00,0.0,meteohub,2013-04-30 07:22:00,
2013-04-30 02:27:00,62.1,60.6,29.87,East,88,0.0,0.0,95,0.00,,,0.00,0.0,meteohub,2013-04-30 07:27:00,
2013-04-30 02:32:00,62.1,60.6,29.86,East,87,0.0,0.0,95,0.00,,,0.00,0.0,meteohub,2013-04-30 07:32:00,
2013-04-30 02:37:00,62.1,60.6,29.86,East,88,0.0,0.0,95,0.00,,,0.00,0.0,meteohub,2013-04-30 07:37:00,
2013-04-30 02:42:00,62.1,60.6,29.86,East,87,0.0,0.0,95,0.00,,,0.00,0.0,meteohub,2013-04-30 07:42:00,
2013-04-30 02:47:00,62.1,60.6,29.86,East,88,0.0,0.0,95,0.00,,,0.00,0.0,meteohub,2013-04-30 07:47:00,
2013-04-30 02:52:00,62.1,60.6,29.86,East,88,0.0,0.0,95,0.00,,,0.00,0.0,meteohub,2013-04-30 07:52:00,
2013-04-30 02:57:00,62.1,60.6,29.86,East,88,0.0,0.0,95,0.00,,,0.00,0.0,meteohub,2013-04-30 07:57:00,
2013-04-30 03:02:00,62.1,61.0,29.86,East,87,0.0,0.0,96,0.00,,,0.00,0.0,meteohub,2013-04-30 08:02:00,
2013-04-30 03:07:00,62.1,61.0,29.86,East,88,0.0,0.0,96,0.00,,,0.00,0.0,meteohub,2013-04-30 08:07:00,
2013-04-30 03:12:00,62.1,61.0,29.86,East,88,0.0,0.0,96,0.00,,,0.00,0.0,meteohub,2013-04-30 08:12:00,
2013-04-30 03:18:00,62.1,61.0,29.86,East,87,0.0,0.0,96,0.00,,,0.00,0.0,meteohub,2013-04-30 08:18:00,
2013-04-30 03:23:00,61.9,60.8,29.86,East,88,0.0,0.0,96,0.00,,,0.00,0.0,meteohub,2013-04-30 08:23:00,
2013-04-30 03:28:00,61.7,60.6,29.86,East,87,0.0,0.0,96,0.00,,,0.00,0.0,meteohub,2013-04-30 08:28:00,
2013-04-30 03:33:00,61.7,60.6,29.86,East,87,0.0,0.0,96,0.00,,,0.00,0.0,meteohub,2013-04-30 08:33:00,
2013-04-30 03:38:00,61.7,60.6,29.86,East,88,0.0,0.0,96,0.00,,,0.00,0.0,meteohub,2013-04-30 08:38:00,
2013-04-30 03:43:00,61.5,60.4,29.86,East,88,0.0,0.0,96,0.00,,,0.00,0.0,meteohub,2013-04-30 08:43:00,
2013-04-30 03:48:00,61.3,60.3,29.86,East,88,0.0,0.0,96,0.00,,,0.00,0.0,meteohub,2013-04-30 08:48:00,
2013-04-30 03:53:00,61.3,60.3,29.86,East,87,0.0,0.0,96,0.00,,,0.00,0.0,meteohub,2013-04-30 08:53:00,
2013-04-30 03:58:00,61.3,60.3,29.86,East,88,0.0,0.0,96,0.00,,,0.00,0.0,meteohub,2013-04-30 08:58:00,
2013-04-30 04:03:00,61.3,60.3,29.86,East,87,0.0,0.0,96,0.00,,,0.00,0.0,meteohub,2013-04-30 09:03:00,
2013-04-30 04:08:00,61.3,60.3,29.86,East,88,0.0,0.0,96,0.00,,,0.00,0.0,meteohub,2013-04-30 09:08:00,
2013-04-30 04:13:00,61.5,60.4,29.86,East,88,0.0,0.0,96,0.00,,,0.00,0.0,meteohub,2013-04-30 09:13:00,
2013-04-30 04:18:00,61.5,60.6,29.86,East,87,0.0,0.0,97,0.00,,,0.00,0.0,meteohub,2013-04-30 09:18:00,
2013-04-30 04:23:00,61.5,60.6,29.86,East,87,0.0,0.0,97,0.00,,,0.00,0.0,meteohub,2013-04-30 09:23:00,
2013-04-30 04:28:00,61.3,60.4,29.86,East,88,0.0,0.0,97,0.00,,,0.00,0.0,meteohub,2013-04-30 09:28:00,
2013-04-30 04:33:00,61.3,60.4,29.85,East,88,0.0,0.0,97,0.00,,,0.00,0.0,meteohub,2013-04-30 09:33:00,
2013-04-30 04:38:00,61.2,60.3,29.85,East,88,0.0,0.0,97,0.00,,,0.00,0.0,meteohub,2013-04-30 09:38:00,
2013-04-30 04:43:00,61.2,60.3,29.85,East,88,0.0,0.0,97,0.00,,,0.00,0.0,meteohub,2013-04-30 09:43:00,
2013-04-30 04:48:00,61.0,60.1,29.85,East,88,0.0,0.0,97,0.00,,,0.00,0.0,meteohub,2013-04-30 09:48:00,
2013-04-30 04:53:00,61.0,60.1,29.86,East,87,0.0,0.0,97,0.00,,,0.00,0.0,meteohub,2013-04-30 09:53:00,
2013-04-30 04:58:00,61.0,60.1,29.86,East,87,0.0,0.0,97,0.00,,,0.00,0.0,meteohub,2013-04-30 09:58:00,
2013-04-30 05:03:00,61.0,60.1,29.86,East,87,0.0,0.0,97,0.00,,,0.00,0.0,meteohub,2013-04-30 10:03:00,
2013-04-30 05:08:00,60.8,59.9,29.85,East,88,0.0,0.0,97,0.00,,,0.00,0.0,meteohub,2013-04-30 10:08:00,
2013-04-30 05:13:00,60.8,59.9,29.85,East,87,0.0,0.0,97,0.00,,,0.00,0.0,meteohub,2013-04-30 10:13:00,
2013-04-30 05:18:00,60.8,59.9,29.86,East,87,0.0,0.0,97,0.00,,,0.00,0.0,meteohub,2013-04-30 10:18:00,
2013-04-30 05:23:00,60.8,59.9,29.86,East,88,0.0,0.0,97,0.00,,,0.00,0.0,meteohub,2013-04-30 10:23:00,
2013-04-30 05:28:00,60.8,59.9,29.86,East,87,0.0,0.0,97,0.00,,,0.00,0.0,meteohub,2013-04-30 10:28:00,
2013-04-30 05:33:00,61.0,60.1,29.86,East,87,0.0,0.0,97,0.00,,,0.00,0.0,meteohub,2013-04-30 10:33:00,
2013-04-30 05:38:00,60.8,59.9,29.86,East,88,0.0,0.0,97,0.00,,,0.00,0.0,meteohub,2013-04-30 10:38:00,
2013-04-30 05:43:00,61.2,60.3,29.85,East,87,0.0,0.0,97,0.00,,,0.00,0.0,meteohub,2013-04-30 10:43:00,
2013-04-30 05:48:00,61.2,60.3,29.85,East,88,0.0,0.0,97,0.00,,,0.00,0.0,meteohub,2013-04-30 10:48:00,
2013-04-30 05:53:00,61.2,60.3,29.85,East,88,0.0,0.0,97,0.00,,,0.00,0.0,meteohub,2013-04-30 10:53:00,
2013-04-30 05:58:00,61.3,60.4,29.85,East,88,0.0,0.0,97,0.00,,,0.00,0.0,meteohub,2013-04-30 10:58:00,
2013-04-30 06:03:00,61.2,60.3,29.86,East,87,0.0,0.0,97,0.00,,,0.00,0.0,meteohub,2013-04-30 11:03:00,
2013-04-30 06:08:00,61.2,60.3,29.86,East,88,0.0,0.0,97,0.00,,,0.00,0.0,meteohub,2013-04-30 11:08:00,
2013-04-30 06:13:00,61.2,60.3,29.86,East,87,0.0,0.0,97,0.00,,,0.00,0.0,meteohub,2013-04-30 11:13:00,
2013-04-30 06:18:00,61.2,60.3,29.86,East,88,0.0,0.0,97,0.00,,,0.00,0.0,meteohub,2013-04-30 11:18:00,
2013-04-30 06:23:00,61.2,60.3,29.86,East,87,0.0,0.0,97,0.00,,,0.00,5.0,meteohub,2013-04-30 11:23:00,
2013-04-30 06:28:00,61.2,60.3,29.86,East,88,0.0,0.0,97,0.00,,,0.00,9.0,meteohub,2013-04-30 11:28:00,
2013-04-30 06:33:00,61.2,60.3,29.87,East,88,0.0,0.0,97,0.00,,,0.00,14.0,meteohub,2013-04-30 11:33:00,
2013-04-30 06:38:00,61.2,60.3,29.87,East,88,0.0,0.0,97,0.00,,,0.00,18.0,meteohub,2013-04-30 11:38:00,
2013-04-30 06:43:00,61.2,60.3,29.87,East,88,0.0,0.0,97,0.00,,,0.00,23.0,meteohub,2013-04-30 11:43:00,
2013-04-30 06:49:00,61.3,60.4,29.87,East,88,0.0,0.0,97,0.00,,,0.00,26.0,meteohub,2013-04-30 11:49:00,
2013-04-30 06:53:00,61.3,60.4,29.87,East,88,0.0,0.0,97,0.00,,,0.00,32.0,meteohub,2013-04-30 11:53:00,
2013-04-30 06:59:00,61.7,60.8,29.87,East,87,0.0,0.0,97,0.00,,,0.00,42.0,meteohub,2013-04-30 11:59:00,
2013-04-30 07:04:00,61.9,61.0,29.87,East,87,0.0,0.0,97,0.00,,,0.00,37.0,meteohub,2013-04-30 12:04:00,
2013-04-30 07:09:00,62.1,61.2,29.87,East,88,0.0,0.0,97,0.00,,,0.00,44.0,meteohub,2013-04-30 12:09:00,
2013-04-30 07:14:00,62.4,61.5,29.87,East,88,0.0,0.0,97,0.00,,,0.00,58.0,meteohub,2013-04-30 12:14:00,
2013-04-30 07:19:00,62.8,62.2,29.87,East,87,0.0,0.0,98,0.00,,,0.00,63.0,meteohub,2013-04-30 12:19:00,
2013-04-30 07:24:00,63.1,62.2,29.87,East,88,0.0,0.0,97,0.00,,,0.00,67.0,meteohub,2013-04-30 12:24:00,
2013-04-30 07:29:00,63.7,62.8,29.88,East,88,0.0,0.0,97,0.00,,,0.00,69.0,meteohub,2013-04-30 12:29:00,
2013-04-30 07:34:00,64.0,63.5,29.88,NNE,15,0.0,0.0,98,0.00,,,0.00,74.0,meteohub,2013-04-30 12:34:00,
2013-04-30 07:39:00,64.6,63.7,29.88,NNE,16,0.0,3.0,97,0.00,,,0.00,95.0,meteohub,2013-04-30 12:39:00,
2013-04-30 07:44:00,65.1,64.2,29.87,NNE,21,0.0,3.0,97,0.00,,,0.00,127.0,meteohub,2013-04-30 12:44:00,
2013-04-30 07:49:00,65.5,64.6,29.87,NNE,21,0.0,3.0,97,0.00,,,0.00,134.0,meteohub,2013-04-30 12:49:00,
2013-04-30 07:54:00,65.8,64.9,29.87,NNE,30,0.0,1.0,97,0.00,,,0.00,142.0,meteohub,2013-04-30 12:54:00,
2013-04-30 07:59:00,66.4,65.1,29.87,NE,50,0.0,1.0,96,0.00,,,0.00,153.0,meteohub,2013-04-30 12:59:00,
2013-04-30 08:04:00,66.7,65.3,29.87,NNE,17,0.0,1.0,95,0.00,,,0.00,174.0,meteohub,2013-04-30 13:04:00,
2013-04-30 08:09:00,67.5,66.0,29.87,NNE,17,0.0,1.0,95,0.00,,,0.00,197.0,meteohub,2013-04-30 13:09:00,
2013-04-30 08:14:00,68.0,66.2,29.87,NNE,17,2.0,3.0,94,0.00,,,0.00,192.0,meteohub,2013-04-30 13:14:00,
2013-04-30 08:19:00,68.4,66.0,29.87,NNE,21,0.0,3.0,92,0.00,,,0.00,167.0,meteohub,2013-04-30 13:19:00,
2013-04-30 08:24:00,68.5,65.8,29.87,ENE,57,0.0,2.0,91,0.00,,,0.00,183.0,meteohub,2013-04-30 13:24:00,
2013-04-30 08:29:00,68.9,66.2,29.87,NNE,32,0.0,2.0,91,0.00,,,0.00,199.0,meteohub,2013-04-30 13:29:00,
2013-04-30 08:34:00,69.3,66.2,29.87,ENE,59,1.0,4.0,90,0.00,,,0.00,223.0,meteohub,2013-04-30 13:34:00,
2013-04-30 08:39:00,69.8,66.7,29.87,NE,34,2.0,4.0,90,0.00,,,0.00,234.0,meteohub,2013-04-30 13:39:00,
2013-04-30 08:44:00,70.2,66.7,29.87,NE,36,0.0,4.0,89,0.00,,,0.00,255.0,meteohub,2013-04-30 13:44:00,
2013-04-30 08:49:00,70.5,67.1,29.87,NE,44,0.0,3.0,89,0.00,,,0.00,257.0,meteohub,2013-04-30 13:49:00,
2013-04-30 08:54:00,71.2,67.5,29.87,NNE,26,0.0,3.0,88,0.00,,,0.00,267.0,meteohub,2013-04-30 13:54:00,
2013-04-30 08:59:00,71.4,67.3,29.86,NNE,30,0.0,3.0,87,0.00,,,0.00,267.0,meteohub,2013-04-30 13:59:00,
2013-04-30 09:04:00,72.0,67.8,29.86,NE,44,0.0,3.0,87,0.00,,,0.00,264.0,meteohub,2013-04-30 14:04:00,
2013-04-30 09:09:00,72.5,68.0,29.87,NE,50,0.0,3.0,86,0.00,,,0.00,304.0,meteohub,2013-04-30 14:09:00,
2013-04-30 09:15:00,72.9,68.0,29.87,NNW,333,0.0,3.0,85,0.00,,,0.00,318.0,meteohub,2013-04-30 14:15:00,
2013-04-30 09:20:00,73.2,68.4,29.86,NNE,30,0.0,4.0,85,0.00,,,0.00,366.0,meteohub,2013-04-30 14:20:00,
2013-04-30 09:25:00,73.9,69.1,29.86,NNW,342,0.0,4.0,85,0.00,,,0.00,438.0,meteohub,2013-04-30 14:25:00,
2013-04-30 09:30:00,74.5,68.9,29.87,NE,37,0.0,5.0,83,0.00,,,0.00,258.0,meteohub,2013-04-30 14:30:00,
2013-04-30 09:35:00,74.1,68.5,29.87,NNE,29,0.0,5.0,83,0.00,,,0.00,279.0,meteohub,2013-04-30 14:35:00,
2013-04-30 09:40:00,74.1,68.5,29.87,NE,38,0.0,5.0,83,0.00,,,0.00,241.0,meteohub,2013-04-30 14:40:00,
2013-04-30 09:45:00,74.1,68.9,29.88,NE,39,0.0,5.0,84,0.00,,,0.00,223.0,meteohub,2013-04-30 14:45:00,
2013-04-30 09:50:00,74.1,68.9,29.88,NE,47,0.0,5.0,84,0.00,,,0.00,253.0,meteohub,2013-04-30 14:50:00,
2013-04-30 09:55:00,74.1,68.9,29.88,North,359,0.0,5.0,84,0.00,,,0.00,283.0,meteohub,2013-04-30 14:55:00,
2013-04-30 10:00:00,74.1,68.5,29.88,North,2,3.0,5.0,83,0.00,,,0.00,272.0,meteohub,2013-04-30 15:00:00,
2013-04-30 10:05:00,74.1,68.5,29.88,NNE,32,2.0,5.0,83,0.00,,,0.00,220.0,meteohub,2013-04-30 15:05:00,
2013-04-30 10:10:00,74.1,68.9,29.88,NW,323,0.0,5.0,84,0.00,,,0.00,151.0,meteohub,2013-04-30 15:10:00,
2013-04-30 10:15:00,74.1,68.9,29.88,NNE,14,1.0,6.0,84,0.00,,,0.00,172.0,meteohub,2013-04-30 15:15:00,
2013-04-30 10:20:00,73.9,68.7,29.88,NE,56,2.0,6.0,84,0.00,,,0.00,125.0,meteohub,2013-04-30 15:20:00,
2013-04-30 10:25:00,73.8,68.5,29.88,NNE,26,1.0,6.0,84,0.00,,,0.00,132.0,meteohub,2013-04-30 15:25:00,
2013-04-30 10:30:00,73.4,68.2,29.88,NE,34,2.0,7.0,84,0.00,,,0.00,149.0,meteohub,2013-04-30 15:30:00,
2013-04-30 10:35:00,73.2,68.4,29.88,NE,42,0.0,7.0,85,0.00,,,0.00,76.0,meteohub,2013-04-30 15:35:00,
2013-04-30 10:40:00,72.9,68.4,29.88,ENE,63,0.0,7.0,86,0.00,,,0.00,137.0,meteohub,2013-04-30 15:40:00,
2013-04-30 10:45:00,72.7,68.5,29.88,NNE,27,0.0,7.0,87,0.00,,,0.00,204.0,meteohub,2013-04-30 15:45:00,
2013-04-30 10:50:00,72.3,68.2,29.88,NE,34,3.0,7.0,87,0.00,,,0.00,213.0,meteohub,2013-04-30 15:50:00,
2013-04-30 10:55:00,72.7,68.9,29.88,NNE,18,5.0,7.0,88,0.00,,,0.00,206.0,meteohub,2013-04-30 15:55:00,
2013-04-30 11:00:00,72.7,68.5,29.88,NE,37,0.0,5.0,87,0.00,,,0.00,169.0,meteohub,2013-04-30 16:00:00,
2013-04-30 11:05:00,72.9,68.7,29.88,NE,48,0.0,5.0,87,0.00,,,0.00,171.0,meteohub,2013-04-30 16:05:00,
2013-04-30 11:10:00,72.9,68.4,29.88,NNE,32,1.0,5.0,86,0.00,,,0.00,199.0,meteohub,2013-04-30 16:10:00,
2013-04-30 11:15:00,72.9,68.4,29.88,North,352,1.0,7.0,86,0.00,,,0.00,195.0,meteohub,2013-04-30 16:15:00,
2013-04-30 11:20:00,72.9,68.4,29.88,NNE,20,0.0,7.0,86,0.00,,,0.00,188.0,meteohub,2013-04-30 16:20:00,
2013-04-30 11:25:00,72.9,68.0,29.88,North,9,0.0,7.0,85,0.00,,,0.00,141.0,meteohub,2013-04-30 16:25:00,
2013-04-30 11:30:00,73.0,68.5,29.88,NNE,18,0.0,5.0,86,0.00,,,0.00,139.0,meteohub,2013-04-30 16:30:00,
2013-04-30 11:35:00,73.2,68.4,29.88,East,81,0.0,5.0,85,0.00,,,0.00,188.0,meteohub,2013-04-30 16:35:00,
2013-04-30 11:40:00,73.4,68.5,29.88,NNE,29,4.0,4.0,85,0.00,,,0.00,209.0,meteohub,2013-04-30 16:40:00,
2013-04-30 11:45:00,73.6,68.4,29.88,NNE,13,0.0,4.0,84,0.00,,,0.00,171.0,meteohub,2013-04-30 16:45:00,
2013-04-30 11:50:00,73.2,68.2,29.88,NNE,27,3.0,4.0,84,0.00,,,0.00,91.0,meteohub,2013-04-30 16:50:00,
2013-04-30 11:55:00,73.0,68.2,29.88,NNE,32,0.0,4.0,85,0.00,,,0.00,67.0,meteohub,2013-04-30 16:55:00,
2013-04-30 12:00:00,72.9,68.0,29.88,North,11,0.0,7.0,85,0.00,,,0.00,79.0,meteohub,2013-04-30 17:00:00,
2013-04-30 12:05:00,72.5,68.0,29.88,NNW,342,1.0,7.0,86,0.00,,,0.00,98.0,meteohub,2013-04-30 17:05:00,
2013-04-30 12:11:00,72.3,68.2,29.88,East,101,0.0,7.0,87,0.00,,,0.00,105.0,meteohub,2013-04-30 17:11:00,
2013-04-30 12:16:00,72.1,68.0,29.88,NNE,13,4.0,6.0,87,0.00,,,0.00,98.0,meteohub,2013-04-30 17:16:00,
2013-04-30 12:21:00,72.1,68.0,29.88,NE,44,0.0,6.0,87,0.00,,,0.00,109.0,meteohub,2013-04-30 17:21:00,
2013-04-30 12:26:00,72.1,67.5,29.87,NE,35,2.0,6.0,85,0.00,,,0.00,169.0,meteohub,2013-04-30 17:26:00,
2013-04-30 12:31:00,72.5,68.0,29.87,NNE,13,1.0,6.0,86,0.00,,,0.00,167.0,meteohub,2013-04-30 17:31:00,
2013-04-30 12:36:00,72.5,67.8,29.87,NNE,18,2.0,5.0,85,0.00,,,0.00,134.0,meteohub,2013-04-30 17:36:00,
2013-04-30 12:41:00,72.3,67.6,29.87,NE,56,0.0,5.0,85,0.00,,,0.00,127.0,meteohub,2013-04-30 17:41:00,
2013-04-30 12:46:00,72.3,67.6,29.87,NE,44,0.0,5.0,85,0.00,,,0.00,121.0,meteohub,2013-04-30 17:46:00,
2013-04-30 12:51:00,72.3,67.3,29.87,NE,50,1.0,5.0,84,0.00,,,0.00,109.0,meteohub,2013-04-30 17:51:00,
2013-04-30 12:56:00,72.3,67.3,29.87,NNE,19,0.0,5.0,84,0.00,,,0.00,111.0,meteohub,2013-04-30 17:56:00,
2013-04-30 13:01:00,72.1,67.1,29.86,NNE,21,0.0,5.0,84,0.00,,,0.00,121.0,meteohub,2013-04-30 18:01:00,
2013-04-30 13:06:00,72.1,67.5,29.86,North,2,1.0,5.0,85,0.00,,,0.00,132.0,meteohub,2013-04-30 18:06:00,
2013-04-30 13:11:00,72.1,67.5,29.86,NE,40,0.0,7.0,85,0.00,,,0.00,146.0,meteohub,2013-04-30 18:11:00,
2013-04-30 13:16:00,72.3,67.3,29.86,NNW,333,0.0,7.0,84,0.00,,,0.00,163.0,meteohub,2013-04-30 18:16:00,
2013-04-30 13:21:00,72.5,67.5,29.86,NE,44,3.0,6.0,84,0.00,,,0.00,160.0,meteohub,2013-04-30 18:21:00,
2013-04-30 13:26:00,72.7,67.3,29.85,NNE,24,0.0,6.0,83,0.00,,,0.00,163.0,meteohub,2013-04-30 18:26:00,
2013-04-30 13:31:00,72.9,67.5,29.86,NNE,15,2.0,6.0,83,0.00,,,0.00,171.0,meteohub,2013-04-30 18:31:00,
2013-04-30 13:36:00,72.9,67.5,29.85,NE,47,0.0,6.0,83,0.00,,,0.00,190.0,meteohub,2013-04-30 18:36:00,
2013-04-30 13:41:00,72.7,67.6,29.85,North,2,1.0,5.0,84,0.00,,,0.00,202.0,meteohub,2013-04-30 18:41:00,
2013-04-30 13:46:00,72.9,67.5,29.85,NNW,346,0.0,5.0,83,0.00,,,0.00,206.0,meteohub,2013-04-30 18:46:00,
2013-04-30 13:51:00,73.0,68.0,29.85,NNE,32,2.0,5.0,84,0.00,,,0.00,186.0,meteohub,2013-04-30 18:51:00,
2013-04-30 13:56:00,73.0,67.6,29.85,North,6,1.0,5.0,83,0.00,,,0.00,197.0,meteohub,2013-04-30 18:56:00,
2013-04-30 14:01:00,73.0,67.6,29.85,NNW,337,1.0,5.0,83,0.00,,,0.00,181.0,meteohub,2013-04-30 19:01:00,
2013-04-30 14:06:00,73.2,67.8,29.85,NE,47,0.0,5.0,83,0.00,,,0.00,195.0,meteohub,2013-04-30 19:06:00,
2013-04-30 14:11:00,73.4,68.0,29.85,NE,47,1.0,5.0,83,0.00,,,0.00,185.0,meteohub,2013-04-30 19:11:00,
2013-04-30 14:16:00,73.4,68.0,29.85,NE,46,0.0,5.0,83,0.00,,,0.00,155.0,meteohub,2013-04-30 19:16:00,
2013-04-30 14:21:00,73.2,67.8,29.85,NNE,15,0.0,3.0,83,0.00,,,0.00,144.0,meteohub,2013-04-30 19:21:00,
2013-04-30 14:26:00,73.6,68.2,29.85,ENE,75,0.0,4.0,83,0.00,,,0.00,137.0,meteohub,2013-04-30 19:26:00,
2013-04-30 14:31:00,73.6,67.8,29.85,NE,38,0.0,4.0,82,0.00,,,0.00,139.0,meteohub,2013-04-30 19:31:00,
2013-04-30 14:36:00,73.8,68.0,29.85,NNE,21,5.0,5.0,82,0.00,,,0.00,144.0,meteohub,2013-04-30 19:36:00,
2013-04-30 14:41:00,73.8,68.0,29.85,NNW,348,2.0,5.0,82,0.00,,,0.00,137.0,meteohub,2013-04-30 19:41:00,
2013-04-30 14:46:00,73.8,68.0,29.85,NNE,29,0.0,6.0,82,0.00,,,0.00,146.0,meteohub,2013-04-30 19:46:00,
2013-04-30 14:51:00,73.8,68.4,29.85,NNE,16,0.0,6.0,83,0.00,,,0.00,158.0,meteohub,2013-04-30 19:51:00,
2013-04-30 14:56:00,74.1,68.5,29.85,NNE,16,0.0,3.0,83,0.00,,,0.00,148.0,meteohub,2013-04-30 19:56:00,
2013-04-30 15:01:00,74.5,68.5,29.85,ENE,62,2.0,3.0,82,0.00,,,0.00,204.0,meteohub,2013-04-30 20:01:00,
2013-04-30 15:06:00,74.8,68.2,29.84,ENE,62,0.0,3.0,80,0.00,,,0.00,202.0,meteohub,2013-04-30 20:06:00,
2013-04-30 15:11:00,74.8,68.9,29.84,ENE,61,0.0,2.0,82,0.00,,,0.00,185.0,meteohub,2013-04-30 20:11:00,
2013-04-30 15:17:00,74.8,68.2,29.84,ENE,59,0.0,2.0,80,0.00,,,0.00,171.0,meteohub,2013-04-30 20:17:00,
2013-04-30 15:22:00,74.8,67.8,29.83,NNE,14,1.0,3.0,79,0.00,,,0.00,163.0,meteohub,2013-04-30 20:22:00,
2013-04-30 15:27:00,75.0,68.0,29.83,NNE,15,0.0,3.0,79,0.00,,,0.00,160.0,meteohub,2013-04-30 20:27:00,
2013-04-30 15:32:00,75.0,68.4,29.83,NNW,336,0.0,5.0,80,0.00,,,0.00,165.0,meteohub,2013-04-30 20:32:00,
2013-04-30 15:37:00,75.2,68.5,29.82,NNW,345,1.0,5.0,80,0.00,,,0.00,178.0,meteohub,2013-04-30 20:37:00,
2013-04-30 15:42:00,75.4,68.4,29.82,NNE,19,0.0,6.0,79,0.00,,,0.00,207.0,meteohub,2013-04-30 20:42:00,
2013-04-30 15:47:00,75.6,68.5,29.82,North,350,0.0,6.0,79,0.00,,,0.00,229.0,meteohub,2013-04-30 20:47:00,
2013-04-30 15:52:00,75.9,68.2,29.82,NNE,13,2.0,6.0,77,0.00,,,0.00,241.0,meteohub,2013-04-30 20:52:00,
2013-04-30 15:57:00,76.1,68.0,29.81,NE,41,2.0,6.0,76,0.00,,,0.00,248.0,meteohub,2013-04-30 20:57:00,
2013-04-30 16:02:00,76.5,68.4,29.81,NE,38,3.0,6.0,76,0.00,,,0.00,214.0,meteohub,2013-04-30 21:02:00,
2013-04-30 16:07:00,76.5,68.0,29.81,North,358,0.0,6.0,75,0.00,,,0.00,236.0,meteohub,2013-04-30 21:07:00,
2013-04-30 16:12:00,76.5,68.0,29.81,NNE,23,0.0,6.0,75,0.00,,,0.00,220.0,meteohub,2013-04-30 21:12:00,
2013-04-30 16:17:00,76.6,68.5,29.82,NE,40,0.0,6.0,76,0.00,,,0.00,223.0,meteohub,2013-04-30 21:17:00,
2013-04-30 16:22:00,76.8,68.4,29.82,NE,40,0.0,6.0,75,0.00,,,0.00,237.0,meteohub,2013-04-30 21:22:00,
2013-04-30 16:27:00,77.4,68.9,29.81,NE,35,0.0,4.0,75,0.00,,,0.00,211.0,meteohub,2013-04-30 21:27:00,
2013-04-30 16:32:00,77.2,67.8,29.81,NNE,21,2.0,4.0,73,0.00,,,0.00,181.0,meteohub,2013-04-30 21:32:00,
2013-04-30 16:37:00,77.0,67.3,29.81,NE,34,5.0,6.0,72,0.00,,,0.00,153.0,meteohub,2013-04-30 21:37:00,
2013-04-30 16:42:00,76.8,67.5,29.81,NNE,12,0.0,6.0,73,0.00,,,0.00,165.0,meteohub,2013-04-30 21:42:00,
2013-04-30 16:47:00,76.8,67.5,29.82,ENE,69,0.0,6.0,73,0.00,,,0.00,144.0,meteohub,2013-04-30 21:47:00,
2013-04-30 16:52:00,76.8,67.5,29.81,NE,38,3.0,6.0,73,0.00,,,0.00,120.0,meteohub,2013-04-30 21:52:00,
2013-04-30 16:57:00,76.6,67.3,29.81,NE,42,0.0,6.0,73,0.00,,,0.00,160.0,meteohub,2013-04-30 21:57:00,
2013-04-30 17:02:00,76.8,67.1,29.81,NNE,29,0.0,6.0,72,0.00,,,0.00,135.0,meteohub,2013-04-30 22:02:00,
2013-04-30 17:07:00,76.8,67.1,29.81,NNE,15,5.0,6.0,72,0.00,,,0.00,125.0,meteohub,2013-04-30 22:07:00,
2013-04-30 17:12:00,76.8,67.5,29.81,NNE,23,0.0,7.0,73,0.00,,,0.00,125.0,meteohub,2013-04-30 22:12:00,
2013-04-30 17:17:00,76.8,67.5,29.81,North,10,0.0,7.0,73,0.00,,,0.00,113.0,meteohub,2013-04-30 22:17:00,
2013-04-30 17:22:00,76.8,67.8,29.81,NNE,18,1.0,7.0,74,0.00,,,0.00,158.0,meteohub,2013-04-30 22:22:00,
2013-04-30 17:27:00,77.0,68.0,29.81,NNE,25,2.0,7.0,74,0.00,,,0.00,188.0,meteohub,2013-04-30 22:27:00,
2013-04-30 17:32:00,77.5,68.2,29.81,ESE,118,0.0,7.0,73,0.00,,,0.00,144.0,meteohub,2013-04-30 22:32:00,
2013-04-30 17:37:00,77.4,67.6,29.81,NNE,29,3.0,7.0,72,0.00,,,0.00,109.0,meteohub,2013-04-30 22:37:00,
2013-04-30 17:42:00,76.8,67.8,29.81,NNE,14,1.0,7.0,74,0.00,,,0.00,111.0,meteohub,2013-04-30 22:42:00,
2013-04-30 17:47:00,76.6,67.3,29.81,NNE,21,3.0,7.0,73,0.00,,,0.00,118.0,meteohub,2013-04-30 22:47:00,
2013-04-30 17:52:00,76.8,67.8,29.81,NNE,30,3.0,7.0,74,0.00,,,0.00,260.0,meteohub,2013-04-30 22:52:00,
2013-04-30 17:57:00,77.0,68.0,29.81,NE,48,2.0,7.0,74,0.00,,,0.00,290.0,meteohub,2013-04-30 22:57:00,
2013-04-30 18:02:00,77.2,68.2,29.80,NE,48,0.0,9.0,74,0.00,,,0.00,229.0,meteohub,2013-04-30 23:02:00,
2013-04-30 18:07:00,77.2,68.2,29.81,NE,34,0.0,9.0,74,0.00,,,0.00,77.0,meteohub,2013-04-30 23:07:00,
2013-04-30 18:12:00,76.8,67.8,29.81,NNE,27,4.0,6.0,74,0.00,,,0.00,72.0,meteohub,2013-04-30 23:12:00,
2013-04-30 18:17:00,76.6,67.6,29.81,NE,41,0.0,6.0,74,0.00,,,0.00,83.0,meteohub,2013-04-30 23:17:00,
2013-04-30 18:22:00,76.6,67.6,29.81,NNE,18,2.0,6.0,74,0.00,,,0.00,76.0,meteohub,2013-04-30 23:22:00,
2013-04-30 18:27:00,76.5,68.0,29.81,North,358,0.0,6.0,75,0.00,,,0.00,67.0,meteohub,2013-04-30 23:27:00,
2013-04-30 18:32:00,76.5,67.6,29.80,North,2,0.0,6.0,74,0.00,,,0.00,63.0,meteohub,2013-04-30 23:32:00,
2013-04-30 18:37:00,76.5,68.0,29.80,NNE,18,0.0,6.0,75,0.00,,,0.00,58.0,meteohub,2013-04-30 23:37:00,
2013-04-30 18:42:00,76.5,68.0,29.81,NE,39,0.0,11.0,75,0.00,,,0.00,62.0,meteohub,2013-04-30 23:42:00,
2013-04-30 18:47:00,76.5,68.4,29.81,NE,36,0.0,11.0,76,0.00,,,0.00,62.0,meteohub,2013-04-30 23:47:00,
2013-04-30 18:52:00,76.3,67.8,29.81,North,0,1.0,5.0,75,0.00,,,0.00,53.0,meteohub,2013-04-30 23:52:00,
2013-04-30 18:57:00,76.3,67.8,29.81,NNE,17,0.0,5.0,75,0.00,,,0.00,47.0,meteohub,2013-04-30 23:57:00,
2013-04-30 19:02:00,75.9,67.5,29.81,North,7,0.0,9.0,75,0.00,,,0.00,30.0,meteohub,2013-05-01 00:02:00,
2013-04-30 19:08:00,75.9,67.8,29.81,NNW,331,0.0,9.0,76,0.00,,,0.00,21.0,meteohub,2013-05-01 00:08:00,
2013-04-30 19:13:00,75.7,67.6,29.81,North,350,4.0,9.0,76,0.00,,,0.00,21.0,meteohub,2013-05-01 00:13:00,
2013-04-30 19:18:00,75.6,67.8,29.81,NNE,30,2.0,11.0,77,0.00,,,0.00,16.0,meteohub,2013-05-01 00:18:00,
2013-04-30 19:23:00,75.6,67.8,29.82,NNE,27,1.0,11.0,77,0.00,,,0.00,12.0,meteohub,2013-05-01 00:23:00,
2013-04-30 19:28:00,75.4,67.6,29.82,NE,56,2.0,11.0,77,0.00,,,0.00,9.0,meteohub,2013-05-01 00:28:00,
2013-04-30 19:33:00,74.8,65.1,29.82,NNE,17,2.0,11.0,72,0.00,,,0.00,7.0,meteohub,2013-05-01 00:33:00,
2013-04-30 19:38:00,74.5,64.4,29.82,NE,38,4.0,9.0,71,0.00,,,0.00,5.0,meteohub,2013-05-01 00:38:00,
2013-04-30 19:43:00,74.1,64.0,29.82,NNE,26,2.0,9.0,71,0.00,,,0.00,0.0,meteohub,2013-05-01 00:43:00,
2013-04-30 19:48:00,73.9,64.4,29.82,NE,48,5.0,9.0,72,0.00,,,0.00,0.0,meteohub,2013-05-01 00:48:00,
2013-04-30 19:53:00,73.6,64.4,29.82,North,4,0.0,9.0,73,0.00,,,0.00,0.0,meteohub,2013-05-01 00:53:00,
2013-04-30 19:58:00,73.2,64.0,29.82,NNE,18,0.0,7.0,73,0.00,,,0.00,0.0,meteohub,2013-05-01 00:58:00,
2013-04-30 20:03:00,73.2,64.0,29.82,NE,50,0.0,7.0,73,0.00,,,0.00,0.0,meteohub,2013-05-01 01:03:00,
2013-04-30 20:08:00,73.0,64.2,29.82,NNE,29,0.0,5.0,74,0.00,,,0.00,0.0,meteohub,2013-05-01 01:08:00,
2013-04-30 20:13:00,72.9,64.0,29.82,NE,38,0.0,6.0,74,0.00,,,0.00,0.0,meteohub,2013-05-01 01:13:00,
2013-04-30 20:18:00,72.9,64.8,29.82,NNW,337,0.0,6.0,76,0.00,,,0.00,0.0,meteohub,2013-05-01 01:18:00,
2013-04-30 20:23:00,72.5,65.7,29.82,NE,36,0.0,6.0,79,0.00,,,0.00,0.0,meteohub,2013-05-01 01:23:00,
2013-04-30 20:28:00,72.1,66.0,29.83,NE,38,0.0,4.0,81,0.00,,,0.00,0.0,meteohub,2013-05-01 01:28:00,
2013-04-30 20:33:00,71.8,65.7,29.82,NNE,27,0.0,4.0,81,0.00,,,0.00,0.0,meteohub,2013-05-01 01:33:00,
2013-04-30 20:38:00,71.2,65.5,29.83,NNW,339,0.0,5.0,82,0.00,,,0.00,0.0,meteohub,2013-05-01 01:38:00,
2013-04-30 20:43:00,71.1,65.3,29.83,NE,36,0.0,5.0,82,0.00,,,0.00,0.0,meteohub,2013-05-01 01:43:00,
2013-04-30 20:48:00,70.9,65.5,29.83,North,11,0.0,5.0,83,0.00,,,0.00,0.0,meteohub,2013-05-01 01:48:00,
2013-04-30 20:53:00,70.7,65.3,29.83,NNE,29,0.0,5.0,83,0.00,,,0.00,0.0,meteohub,2013-05-01 01:53:00,
2013-04-30 20:59:00,70.5,65.5,29.83,NE,52,2.0,5.0,84,0.00,,,0.00,0.0,meteohub,2013-05-01 01:59:00,
2013-04-30 21:04:00,70.3,64.9,29.84,NNE,27,0.0,5.0,83,0.00,,,0.00,0.0,meteohub,2013-05-01 02:04:00,
2013-04-30 21:09:00,70.3,64.9,29.84,NNW,341,0.0,5.0,83,0.00,,,0.00,0.0,meteohub,2013-05-01 02:09:00,
2013-04-30 21:14:00,70.3,64.9,29.84,NNE,19,0.0,5.0,83,0.00,,,0.00,0.0,meteohub,2013-05-01 02:14:00,
2013-04-30 21:19:00,70.2,64.8,29.84,North,4,0.0,5.0,83,0.00,,,0.00,0.0,meteohub,2013-05-01 02:19:00,
2013-04-30 21:24:00,70.0,64.6,29.85,NNE,30,0.0,7.0,83,0.00,,,0.00,0.0,meteohub,2013-05-01 02:24:00,
2013-04-30 21:29:00,70.0,64.6,29.85,NNE,26,0.0,7.0,83,0.00,,,0.00,0.0,meteohub,2013-05-01 02:29:00,
2013-04-30 21:34:00,70.0,64.6,29.85,NNE,13,0.0,6.0,83,0.00,,,0.00,0.0,meteohub,2013-05-01 02:34:00,
2013-04-30 21:39:00,70.0,64.9,29.86,North,0,0.0,6.0,84,0.00,,,0.00,0.0,meteohub,2013-05-01 02:39:00,
2013-04-30 21:44:00,69.8,65.1,29.86,NNW,336,1.0,4.0,85,0.00,,,0.00,0.0,meteohub,2013-05-01 02:44:00,
2013-04-30 21:49:00,69.6,64.6,29.86,NNE,14,2.0,5.0,84,0.00,,,0.00,0.0,meteohub,2013-05-01 02:49:00,
2013-04-30 21:54:00,69.6,64.6,29.86,NE,40,0.0,6.0,84,0.00,,,0.00,0.0,meteohub,2013-05-01 02:54:00,
2013-04-30 21:59:00,69.6,64.6,29.86,North,11,0.0,6.0,84,0.00,,,0.00,0.0,meteohub,2013-05-01 02:59:00,
2013-04-30 22:04:00,69.4,64.8,29.86,NE,41,0.0,7.0,85,0.00,,,0.00,0.0,meteohub,2013-05-01 03:04:00,
2013-04-30 22:09:00,69.4,64.8,29.86,NE,44,3.0,7.0,85,0.00,,,0.00,0.0,meteohub,2013-05-01 03:09:00,
2013-04-30 22:14:00,69.4,64.8,29.86,NNE,18,1.0,7.0,85,0.00,,,0.00,0.0,meteohub,2013-05-01 03:14:00,
2013-04-30 22:19:00,69.3,64.6,29.87,NNE,19,4.0,7.0,85,0.00,,,0.00,0.0,meteohub,2013-05-01 03:19:00,
2013-04-30 22:24:00,69.3,64.6,29.87,NNE,30,2.0,7.0,85,0.00,,,0.00,0.0,meteohub,2013-05-01 03:24:00,
2013-04-30 22:29:00,69.3,64.6,29.86,NNE,15,2.0,6.0,85,0.00,,,0.00,0.0,meteohub,2013-05-01 03:29:00,
2013-04-30 22:34:00,69.3,64.6,29.87,NNE,18,2.0,8.0,85,0.00,,,0.00,0.0,meteohub,2013-05-01 03:34:00,
2013-04-30 22:39:00,69.1,64.4,29.87,NE,46,0.0,8.0,85,0.00,,,0.00,0.0,meteohub,2013-05-01 03:39:00,
2013-04-30 22:44:00,69.1,64.4,29.87,NNE,20,1.0,8.0,85,0.00,,,0.00,0.0,meteohub,2013-05-01 03:44:00,
2013-04-30 22:49:00,69.1,64.4,29.87,North,2,0.0,5.0,85,0.00,,,0.00,0.0,meteohub,2013-05-01 03:49:00,
2013-04-30 22:54:00,68.9,64.2,29.87,NNE,21,0.0,5.0,85,0.00,,,0.00,0.0,meteohub,2013-05-01 03:54:00,
2013-04-30 22:59:00,68.7,64.4,29.87,North,11,0.0,5.0,86,0.00,,,0.00,0.0,meteohub,2013-05-01 03:59:00,
2013-04-30 23:01:00,68.7,64.4,29.87,NE,46,0.0,6.0,86,0.00,,,0.00,0.0,meteohub,2013-05-01 04:01:00,
2013-04-30 23:02:00,68.7,64.4,29.87,ENE,71,2.0,6.0,86,0.00,,,0.00,0.0,meteohub,2013-05-01 04:02:00,
2013-04-30 23:07:00,68.7,64.4,29.87,ENE,69,0.0,6.0,86,0.00,,,0.00,0.0,meteohub,2013-05-01 04:07:00,
2013-04-30 23:12:00,68.7,64.4,29.87,ESE,120,1.0,7.0,86,0.00,,,0.00,0.0,meteohub,2013-05-01 04:12:00,
2013-04-30 23:17:00,68.7,64.4,29.87,NE,44,0.0,7.0,86,0.00,,,0.00,0.0,meteohub,2013-05-01 04:17:00,
2013-04-30 23:22:00,68.5,64.2,29.87,NE,48,0.0,6.0,86,0.00,,,0.00,0.0,meteohub,2013-05-01 04:22:00,
2013-04-30 23:27:00,68.5,64.2,29.87,NE,46,4.0,6.0,86,0.00,,,0.00,0.0,meteohub,2013-05-01 04:27:00,
2013-04-30 23:32:00,68.5,64.2,29.87,NE,44,4.0,6.0,86,0.00,,,0.00,0.0,meteohub,2013-05-01 04:32:00,
2013-04-30 23:37:00,68.5,64.2,29.87,NE,46,0.0,7.0,86,0.00,,,0.00,0.0,meteohub,2013-05-01 04:37:00,
2013-04-30 23:42:00,68.4,64.0,29.87,NNE,26,0.0,7.0,86,0.00,,,0.00,0.0,meteohub,2013-05-01 04:42:00,
2013-04-30 23:47:00,68.4,64.0,29.87,NNE,32,0.0,7.0,86,0.00,,,0.00,0.0,meteohub,2013-05-01 04:47:00,
2013-04-30 23:52:00,68.4,64.0,29.87,NE,38,0.0,6.0,86,0.00,,,0.00,0.0,meteohub,2013-05-01 04:52:00,
2013-04-30 23:57:00,68.4,64.0,29.87,NE,38,0.0,6.0,86,0.00,,,0.00,0.0,meteohub,2013-05-01 04:57:00,